Time;durP1;ratioP1;P1;durP2;ratioP2;P2;SDS_P1;SDS_P2;PMS_P1;PMS_P2;Temp;Humidity;BMP_temperature;BMP_pressure;BME280_temperature;BME280_humidity;BME280_pressure;Samples;Min_cycle;Max_cycle;Signal;HPM_P1;HPM_P2
2021/01/07 00:00:33;;;;;;;32.00;10.53;;;;;;;6.66;82.45;100435.73;127806;1092;104354;-77
2021/01/07 00:03:06;;;;;;;23.97;11.07;;;;;;;6.67;82.50;100437.54;127708;1091;104199;-75
2021/01/07 00:05:37;;;;;;;26.70;10.90;;;;;;;6.67;82.59;100440.14;127759;1092;104241;-76
2021/01/07 00:08:07;;;;;;;24.20;11.13;;;;;;;6.67;82.50;100440.14;127794;1091;104283;-76
2021/01/07 00:10:37;;;;;;;28.63;12.10;;;;;;;6.65;82.43;100440.06;127774;1091;104339;-75
2021/01/07 00:13:07;;;;;;;30.20;12.10;;;;;;;6.67;83.06;100432.32;127777;1092;104211;-75
2021/01/07 00:15:37;;;;;;;27.10;12.10;;;;;;;6.68;82.50;100443.64;127790;1091;104362;-76
2021/01/07 00:18:08;;;;;;;28.30;12.20;;;;;;;6.71;82.57;100444.67;127785;1092;104212;-75
2021/01/07 00:20:38;;;;;;;26.83;12.50;;;;;;;6.73;82.86;100443.06;127813;1091;104234;-75
2021/01/07 00:23:08;;;;;;;27.30;12.90;;;;;;;6.76;82.68;100434.48;127758;1091;104230;-76
2021/01/07 00:25:46;;;;;;;26.87;12.00;;;;;;;6.79;83.39;100435.55;127832;1091;104344;-75
2021/01/07 00:28:18;;;;;;;24.93;11.27;;;;;;;6.83;83.31;100424.42;127833;1091;104205;-75
2021/01/07 00:30:48;;;;;;;26.20;12.07;;;;;;;6.84;82.85;100428.84;127823;1092;104122;-76
2021/01/07 00:33:20;;;;;;;29.67;12.70;;;;;;;6.86;83.00;100435.81;127828;1092;104231;-75
2021/01/07 00:35:50;;;;;;;28.00;12.40;;;;;;;6.88;83.28;100428.98;127803;1091;104205;-75
2021/01/07 00:38:23;;;;;;;31.97;12.80;;;;;;;6.88;82.92;100426.38;127486;1091;104244;-75
2021/01/07 00:40:53;;;;;;;27.23;11.93;;;;;;;6.88;82.88;100415.94;127797;1091;104331;-74
2021/01/07 00:43:26;;;;;;;28.40;13.13;;;;;;;6.88;82.76;100415.94;127796;1092;104801;-75
2021/01/07 00:45:56;;;;;;;28.57;12.53;;;;;;;6.84;82.88;100423.62;127786;1092;104250;-76
2021/01/07 00:48:26;;;;;;;26.03;11.80;;;;;;;6.83;83.00;100415.72;127793;1092;104228;-76
2021/01/07 00:50:59;;;;;;;32.07;13.20;;;;;;;6.81;83.07;100410.42;127770;1091;104215;-75
2021/01/07 00:53:29;;;;;;;28.73;12.37;;;;;;;6.83;83.10;100421.81;127807;1091;104213;-77
2021/01/07 00:55:59;;;;;;;27.47;12.30;;;;;;;6.89;83.13;100415.10;127811;1091;104292;-75
2021/01/07 00:58:30;;;;;;;27.97;12.23;;;;;;;6.91;82.94;100416.09;127792;1092;104340;-75
2021/01/07 01:01:00;;;;;;;26.20;12.00;;;;;;;6.89;83.15;100413.41;127605;1092;104263;-75
2021/01/07 01:03:30;;;;;;;25.40;11.53;;;;;;;6.92;83.33;100407.42;127765;1092;103805;-75
2021/01/07 01:06:00;;;;;;;28.07;12.53;;;;;;;6.96;83.21;100398.94;127767;1091;104212;-75
2021/01/07 01:08:29;;;;;;;27.47;12.80;;;;;;;6.96;83.52;100401.55;127820;1092;104657;-75
2021/01/07 01:11:00;;;;;;;27.70;12.23;;;;;;;6.99;82.99;100397.36;127808;1091;104314;-75
2021/01/07 01:13:30;;;;;;;28.03;12.33;;;;;;;7.02;83.13;100387.08;127761;1091;104301;-75
2021/01/07 01:15:59;;;;;;;27.90;12.63;;;;;;;7.08;83.06;100385.61;127752;1092;104275;-75
2021/01/07 01:18:29;;;;;;;28.97;13.27;;;;;;;7.09;83.19;100377.85;127791;1091;104337;-76
2021/01/07 01:20:59;;;;;;;26.00;11.90;;;;;;;7.10;83.08;100370.91;127815;1092;104327;-75
2021/01/07 01:23:29;;;;;;;25.03;11.40;;;;;;;7.08;83.25;100368.22;127812;1091;104337;-75
2021/01/07 01:25:59;;;;;;;24.40;11.13;;;;;;;7.04;83.23;100363.67;127804;1092;104240;-75
2021/01/07 01:28:29;;;;;;;26.73;12.40;;;;;;;7.01;83.14;100358.31;127760;1092;104180;-75
2021/01/07 01:30:59;;;;;;;28.63;13.00;;;;;;;7.01;83.56;100358.31;127806;1092;104234;-75
2021/01/07 01:33:29;;;;;;;25.20;11.03;;;;;;;7.00;82.99;100356.55;127785;1091;104228;-74
2021/01/07 01:35:59;;;;;;;26.90;12.30;;;;;;;6.99;83.68;100350.41;127799;1092;104330;-75
2021/01/07 01:38:29;;;;;;;30.87;12.93;;;;;;;6.99;83.70;100333.88;127797;1091;104340;-75
2021/01/07 01:41:03;;;;;;;27.40;12.17;;;;;;;7.00;83.18;100327.84;127734;1091;104375;-75
2021/01/07 01:43:33;;;;;;;;;;;;;;;7.00;83.29;100318.29;127834;1091;104214;-75
2021/01/07 01:46:04;;;;;;;26.17;12.80;;;;;;;7.00;83.76;100317.41;127796;1091;104336;-75
2021/01/07 01:48:35;;;;;;;27.07;12.37;;;;;;;6.99;83.76;100311.27;127812;1091;104202;-74
2021/01/07 01:51:04;;;;;;;27.03;12.43;;;;;;;6.96;83.81;100307.64;127778;1092;104353;-75
2021/01/07 01:53:37;;;;;;;27.80;12.50;;;;;;;6.96;83.91;100302.42;127769;1092;104324;-75
2021/01/07 01:56:08;;;;;;;25.23;11.30;;;;;;;6.96;83.98;100305.91;127776;1092;104255;-76
2021/01/07 01:58:39;;;;;;;30.63;13.33;;;;;;;6.98;83.92;100290.33;127825;1092;104212;-75
2021/01/07 02:01:09;;;;;;;26.10;12.60;;;;;;;7.00;83.46;100286.10;127788;1091;104375;-74
2021/01/07 02:03:41;;;;;;;25.33;11.17;;;;;;;6.98;83.28;100270.38;127782;1091;104340;-74
2021/01/07 02:06:15;;;;;;;24.03;11.30;;;;;;;7.00;83.53;100271.33;127715;1092;104224;-75
2021/01/07 02:08:46;;;;;;;25.20;11.35;;;;;;;6.99;83.63;100269.53;127766;1092;105920;-75
2021/01/07 02:11:17;;;;;;;24.70;12.33;;;;;;;6.99;83.41;100266.92;127780;1091;104289;-74
2021/01/07 02:13:49;;;;;;;24.57;10.33;;;;;;;6.99;83.57;100264.31;127805;1091;104202;-74
2021/01/07 02:16:23;;;;;;;26.53;12.33;;;;;;;6.95;83.70;100264.10;127781;1091;104225;-76
2021/01/07 02:18:54;;;;;;;26.43;11.80;;;;;;;6.94;84.03;100259.73;127689;1092;104206;-74
2021/01/07 02:21:24;;;;;;;25.23;11.77;;;;;;;6.95;83.71;100261.49;127829;1092;104282;-74
2021/01/07 02:23:56;;;;;;;28.67;13.20;;;;;;;6.93;83.80;100264.03;127798;1091;104250;-75
2021/01/07 02:26:26;;;;;;;25.97;12.43;;;;;;;6.91;84.01;100259.59;127767;1091;104205;-75
2021/01/07 02:28:56;;;;;;;28.20;13.07;;;;;;;6.91;84.11;100273.52;127788;1092;104721;-74
2021/01/07 02:31:26;;;;;;;26.87;12.43;;;;;;;6.92;84.14;100261.34;127771;1091;104218;-77
2021/01/07 02:33:55;;;;;;;26.63;12.50;;;;;;;6.97;84.11;100257.27;127788;1092;104295;-74
2021/01/07 02:36:25;;;;;;;24.33;12.53;;;;;;;7.00;84.10;100260.02;127789;1091;104204;-74
2021/01/07 02:38:56;;;;;;;25.13;12.17;;;;;;;7.03;84.07;100262.77;127782;1092;104664;-75
2021/01/07 02:41:30;;;;;;;27.07;10.93;;;;;;;7.10;84.24;100256.98;127806;1091;104244;-75
2021/01/07 02:44:00;;;;;;;25.07;12.00;;;;;;;7.15;84.01;100259.80;127785;1092;104205;-75
2021/01/07 02:46:30;;;;;;;23.37;11.10;;;;;;;7.14;83.80;100258.92;127825;1091;104212;-75
2021/01/07 02:49:02;;;;;;;23.17;11.27;;;;;;;7.14;83.77;100256.31;127784;1092;104285;-75
2021/01/07 02:51:32;;;;;;;22.93;11.53;;;;;;;7.18;84.23;100245.20;127820;1092;104340;-75
2021/01/07 02:54:02;;;;;;;25.13;12.10;;;;;;;7.22;84.12;100232.30;127794;1091;104352;-75
2021/01/07 02:56:33;;;;;;;25.13;10.83;;;;;;;7.20;83.53;100225.27;127778;1091;104234;-75
2021/01/07 02:59:04;;;;;;;24.40;10.80;;;;;;;7.18;83.79;100226.02;127802;1091;104230;-75
2021/01/07 03:01:34;;;;;;;24.03;11.87;;;;;;;7.18;83.87;100229.55;127820;1091;104272;-75
2021/01/07 03:04:04;;;;;;;23.10;11.00;;;;;;;7.17;83.66;100225.14;127822;1092;104205;-75
2021/01/07 03:06:33;;;;;;;23.07;11.30;;;;;;;7.17;83.59;100219.92;127801;1092;104231;-75
2021/01/07 03:09:04;;;;;;;22.03;10.77;;;;;;;7.17;84.02;100213.81;127801;1092;104209;-75
2021/01/07 03:11:36;;;;;;;24.13;10.63;;;;;;;7.17;84.14;100216.42;127806;1091;104394;-75
2021/01/07 03:14:06;;;;;;;23.03;11.07;;;;;;;7.19;84.23;100204.33;127810;1091;104706;-75
2021/01/07 03:16:35;;;;;;;22.27;11.07;;;;;;;7.19;84.09;100199.11;127846;1092;104209;-75
2021/01/07 03:19:05;;;;;;;23.67;11.23;;;;;;;7.23;83.87;100200.13;127803;1091;104203;-75
2021/01/07 03:21:41;;;;;;;19.20;8.90;;;;;;;7.20;83.73;100201.79;127784;1091;104292;-75
2021/01/07 03:24:12;;;;;;;23.73;11.13;;;;;;;7.15;84.17;100192.87;127804;1091;104234;-75
2021/01/07 03:26:41;;;;;;;21.23;9.73;;;;;;;7.15;83.85;100199.78;127816;1091;104221;-75
2021/01/07 03:29:11;;;;;;;22.50;10.47;;;;;;;7.15;84.18;100200.70;127835;1091;104218;-75
2021/01/07 03:31:41;;;;;;;21.50;9.43;;;;;;;7.15;83.85;100195.48;127821;1092;104218;-75
2021/01/07 03:34:11;;;;;;;21.07;10.20;;;;;;;7.14;84.03;100198.91;127780;1092;104397;-75
2021/01/07 03:36:41;;;;;;;20.50;10.37;;;;;;;7.16;84.35;100205.08;127817;1092;104283;-74
2021/01/07 03:39:11;;;;;;;21.70;9.53;;;;;;;7.17;83.93;100190.33;127792;1091;104215;-75
2021/01/07 03:41:42;;;;;;;19.83;9.20;;;;;;;7.18;83.96;100176.44;127791;1091;104205;-75
2021/01/07 03:44:12;;;;;;;23.10;10.87;;;;;;;7.15;83.62;100166.78;127789;1092;104343;-76
2021/01/07 03:46:42;;;;;;;21.50;10.33;;;;;;;7.15;84.07;100164.17;127752;1091;104641;-75
2021/01/07 03:49:11;;;;;;;21.53;10.23;;;;;;;7.11;83.59;100154.41;127816;1091;104232;-75
2021/01/07 03:51:41;;;;;;;22.20;10.23;;;;;;;7.12;83.91;100153.59;127778;1091;104293;-77
2021/01/07 03:54:11;;;;;;;20.47;10.10;;;;;;;7.14;84.44;100154.55;127780;1092;104663;-76
2021/01/07 03:56:41;;;;;;;20.60;9.40;;;;;;;7.16;84.30;100147.67;127768;1091;104247;-75
2021/01/07 03:59:11;;;;;;;19.30;8.77;;;;;;;7.15;83.67;100153.73;127766;1092;104651;-76
2021/01/07 04:01:41;;;;;;;18.53;9.30;;;;;;;7.12;84.02;100150.98;127763;1092;104202;-75
2021/01/07 04:04:11;;;;;;;18.10;8.70;;;;;;;7.15;83.88;100156.34;127747;1091;104231;-78
2021/01/07 04:06:41;;;;;;;19.90;9.93;;;;;;;7.17;84.06;100141.63;127722;1091;104304;-74
2021/01/07 04:09:11;;;;;;;19.47;9.63;;;;;;;7.20;84.44;100149.59;127792;1091;104450;-75
2021/01/07 04:11:41;;;;;;;17.17;8.80;;;;;;;7.19;83.91;100150.41;127764;1091;104279;-76
2021/01/07 04:14:11;;;;;;;19.70;9.50;;;;;;;7.21;83.97;100160.91;127816;1091;104235;-77
2021/01/07 04:16:41;;;;;;;20.53;9.67;;;;;;;7.24;83.89;100161.05;127666;1091;104218;-74
2021/01/07 04:19:11;;;;;;;19.03;8.90;;;;;;;7.30;84.37;100148.27;127780;1091;104209;-76
2021/01/07 04:21:45;;;;;;;18.73;9.23;;;;;;;7.32;84.35;100141.42;127756;1091;104215;-75
2021/01/07 04:24:16;;;;;;;20.17;9.43;;;;;;;7.36;83.92;100139.82;127733;1091;104257;-75
2021/01/07 04:26:46;;;;;;;19.17;9.13;;;;;;;7.33;83.90;100145.79;127744;1092;104249;-76
2021/01/07 04:29:17;;;;;;;19.43;9.70;;;;;;;7.33;84.23;100147.52;127807;1092;104212;-74
2021/01/07 04:31:47;;;;;;;20.97;9.67;;;;;;;7.35;84.60;100146.77;127815;1091;104336;-74
2021/01/07 04:34:17;;;;;;;20.37;9.63;;;;;;;7.34;84.23;100131.05;127781;1091;104205;-75
2021/01/07 04:36:48;;;;;;;22.33;10.27;;;;;;;7.31;83.75;100131.80;127770;1092;104215;-75
2021/01/07 04:39:18;;;;;;;19.75;8.80;;;;;;;7.25;84.11;100118.48;127830;1091;104285;-74
2021/01/07 04:41:48;;;;;;;19.70;9.93;;;;;;;7.24;84.23;100121.02;127814;1091;104729;-75
2021/01/07 04:44:19;;;;;;;18.17;9.23;;;;;;;7.23;84.43;100116.62;127815;1091;104229;-74
2021/01/07 04:46:49;;;;;;;20.73;9.67;;;;;;;7.18;84.03;100108.59;127819;1092;104330;-75
2021/01/07 04:49:19;;;;;;;20.15;9.45;;;;;;;7.15;83.78;100119.81;127772;1091;104205;-74
2021/01/07 04:51:49;;;;;;;20.80;10.03;;;;;;;7.14;84.38;100118.02;127802;1092;104250;-75
2021/01/07 04:54:21;;;;;;;19.50;9.73;;;;;;;7.10;84.14;100123.91;127781;1092;104280;-76
2021/01/07 04:56:51;;;;;;;21.23;10.23;;;;;;;7.06;84.10;100115.89;127845;1091;104212;-73
2021/01/07 04:59:21;;;;;;;21.83;10.07;;;;;;;7.05;84.25;100111.52;127784;1091;104285;-75
2021/01/07 05:01:53;;;;;;;22.00;10.60;;;;;;;7.02;83.99;100101.83;127744;1091;104221;-74
2021/01/07 05:04:23;;;;;;;20.20;10.43;;;;;;;7.00;84.30;100106.98;127733;1091;104240;-74
2021/01/07 05:06:53;;;;;;;20.73;8.90;;;;;;;7.01;84.35;100149.59;127825;1091;104743;-74
2021/01/07 05:09:23;;;;;;;21.33;10.87;;;;;;;6.95;84.00;100126.77;127780;1091;104235;-74
2021/01/07 05:11:53;;;;;;;16.60;7.43;;;;;;;6.95;84.43;100128.45;127792;1092;105441;-75
2021/01/07 05:14:23;;;;;;;22.47;11.07;;;;;;;6.91;84.21;100114.40;127782;1091;104318;-75
2021/01/07 05:16:54;;;;;;;22.83;10.57;;;;;;;6.89;84.65;100122.97;127771;1091;104227;-77
2021/01/07 05:19:24;;;;;;;20.60;10.40;;;;;;;6.87;84.14;100112.47;127776;1091;104241;-75
2021/01/07 05:21:56;;;;;;;24.30;11.20;;;;;;;6.83;84.47;100116.66;127790;1091;104340;-74
2021/01/07 05:24:26;;;;;;;23.67;11.53;;;;;;;6.82;84.64;100109.69;127787;1091;104205;-74
2021/01/07 05:26:56;;;;;;;20.83;10.57;;;;;;;6.82;84.52;100107.08;127724;1091;104208;-75
2021/01/07 05:29:26;;;;;;;22.45;10.90;;;;;;;6.82;84.43;100114.91;127758;1091;104227;-75
2021/01/07 05:31:56;;;;;;;20.20;10.77;;;;;;;6.83;84.52;100116.66;127664;1092;104206;-77
2021/01/07 05:34:26;;;;;;;23.00;11.40;;;;;;;6.86;84.64;100110.70;127847;1091;104209;-75
2021/01/07 05:37:00;;;;;;;25.30;12.10;;;;;;;6.88;84.34;100105.55;127849;1091;104331;-74
2021/01/07 05:39:34;;;;;;;24.60;11.93;;;;;;;6.90;84.61;100111.72;127805;1091;104378;-74
2021/01/07 05:42:12;;;;;;;22.95;11.03;;;;;;;6.93;84.51;100104.03;127830;1092;104321;-75
2021/01/07 05:44:47;;;;;;;22.27;11.47;;;;;;;6.97;84.41;100098.14;127787;1091;104219;-75
2021/01/07 05:47:27;;;;;;;22.90;11.50;;;;;;;7.00;84.59;100082.62;127891;1092;104323;-75
2021/01/07 05:49:59;;;;;;;21.03;11.37;;;;;;;7.04;84.43;100089.73;127790;1091;105332;-75
2021/01/07 05:52:32;;;;;;;20.33;10.40;;;;;;;7.10;84.73;100082.17;127813;1091;104333;-75
2021/01/07 05:55:03;;;;;;;19.20;9.83;;;;;;;7.11;84.24;100086.58;127829;1092;104708;-75
2021/01/07 05:57:38;;;;;;;20.03;10.37;;;;;;;7.15;84.45;100095.41;127715;1092;104244;-75
2021/01/07 06:00:11;;;;;;;20.90;10.43;;;;;;;7.20;84.60;100086.97;127728;1092;104410;-78
2021/01/07 06:02:43;;;;;;;21.70;10.60;;;;;;;7.25;84.51;100081.06;127766;1091;104450;-75
2021/01/07 06:05:30;;;;;;;18.70;9.45;;;;;;;7.28;84.39;100071.63;127763;1091;104360;-77
2021/01/07 06:08:01;;;;;;;20.47;10.57;;;;;;;7.29;84.14;100059.47;127710;1092;104206;-77
2021/01/07 06:10:32;;;;;;;20.25;10.50;;;;;;;7.33;84.70;100074.44;127728;1091;104336;-75
2021/01/07 06:13:02;;;;;;;21.07;10.27;;;;;;;7.38;84.71;100073.78;127794;1092;104279;-76
2021/01/07 06:15:33;;;;;;;19.03;10.17;;;;;;;7.42;84.74;100066.99;127793;1092;104337;-76
2021/01/07 06:18:06;;;;;;;19.87;10.03;;;;;;;7.45;84.62;100069.73;127622;1092;104368;-76
2021/01/07 06:20:36;;;;;;;22.20;9.83;;;;;;;7.48;84.69;100075.08;127785;1091;104205;-76
2021/01/07 06:23:19;;;;;;;21.17;10.60;;;;;;;7.50;84.28;100078.63;127705;1091;104247;-76
2021/01/07 06:25:49;;;;;;;19.10;9.60;;;;;;;7.53;84.23;100065.70;127773;1091;104247;-75
2021/01/07 06:28:30;;;;;;;20.10;10.13;;;;;;;7.59;84.82;100058.94;127664;1093;104692;-76
2021/01/07 06:31:03;;;;;;;20.23;9.37;;;;;;;7.66;84.83;100058.37;127488;1092;104350;-77
2021/01/07 06:33:35;;;;;;;18.40;9.20;;;;;;;7.67;84.43;100058.43;128508;1091;104337;-78
2021/01/07 06:36:13;;;;;;;19.97;10.13;;;;;;;7.69;84.10;100050.66;127723;1091;104240;-78
2021/01/07 06:38:54;;;;;;;19.67;10.07;;;;;;;7.65;84.07;100038.30;127769;1091;104281;-78
2021/01/07 06:41:25;;;;;;;20.03;9.60;;;;;;;7.58;84.44;100034.56;127598;1091;104206;-78
2021/01/07 06:43:58;;;;;;;19.73;10.20;;;;;;;7.53;84.56;100029.16;127627;1092;104365;-77
2021/01/07 06:46:43;;;;;;;19.43;9.73;;;;;;;7.50;84.36;100029.03;127805;1091;104208;-77
2021/01/07 06:49:27;;;;;;;21.40;9.90;;;;;;;7.52;84.26;100029.09;127802;1092;104769;-75
2021/01/07 06:52:02;;;;;;;19.40;10.63;;;;;;;7.53;84.77;100018.70;127829;1092;104251;-77
2021/01/07 06:54:36;;;;;;;20.60;10.17;;;;;;;7.58;84.57;100028.45;127800;1092;104209;-77
2021/01/07 06:57:12;;;;;;;19.30;10.07;;;;;;;7.62;84.64;100017.28;127744;1091;104218;-76
2021/01/07 06:59:57;;;;;;;19.10;9.73;;;;;;;7.63;84.75;100024.30;127781;1092;104238;-75
2021/01/07 07:02:29;;;;;;;21.87;11.17;;;;;;;7.59;84.58;100027.60;127757;1091;104231;-76
2021/01/07 07:05:05;;;;;;;24.17;12.00;;;;;;;7.57;84.74;100024.93;127798;1091;104237;-74
2021/01/07 07:08:02;;;;;;;22.57;11.57;;;;;;;7.52;84.46;100018.64;127793;1091;104211;-75
2021/01/07 07:10:55;;;;;;;23.43;11.90;;;;;;;7.50;84.75;100002.04;127763;1092;104362;-76
2021/01/07 07:13:32;;;;;;;23.63;11.60;;;;;;;7.49;84.19;99995.91;127820;1091;104282;-77
2021/01/07 07:16:04;;;;;;;24.63;11.70;;;;;;;7.50;84.21;99995.09;127753;1091;104212;-77
2021/01/07 07:18:36;;;;;;;22.37;11.17;;;;;;;7.59;84.82;99998.88;127824;1091;104187;-77
2021/01/07 07:21:24;;;;;;;21.50;11.60;;;;;;;7.64;84.64;99994.75;127830;1091;104263;-78
2021/01/07 07:23:56;;;;;;;24.67;12.00;;;;;;;7.67;84.43;100000.98;127817;1091;104789;-76
2021/01/07 07:26:37;;;;;;;23.40;12.50;;;;;;;7.69;84.62;99993.20;127829;1091;104212;-76
2021/01/07 07:29:17;;;;;;;23.57;12.20;;;;;;;7.67;84.64;100003.59;127809;1091;104340;-77
2021/01/07 07:31:48;;;;;;;22.70;12.20;;;;;;;7.67;84.47;100000.10;127811;1091;104334;-78
2021/01/07 07:34:30;;;;;;;26.37;13.20;;;;;;;7.65;84.99;99996.52;127712;1091;104250;-78
2021/01/07 07:37:01;;;;;;;25.17;12.53;;;;;;;7.66;84.60;99990.47;127759;1092;104336;-77
2021/01/07 07:39:31;;;;;;;24.97;12.77;;;;;;;7.64;84.70;99984.31;127842;1091;104205;-76
2021/01/07 07:42:11;;;;;;;22.10;11.47;;;;;;;7.62;84.95;99986.86;127706;1091;104286;-78
2021/01/07 07:44:44;;;;;;;21.07;10.83;;;;;;;7.59;84.75;99975.38;127725;1092;104203;-75
2021/01/07 07:47:14;;;;;;;21.33;10.73;;;;;;;7.57;84.65;99983.16;127811;1091;104341;-78
2021/01/07 07:49:44;;;;;;;23.57;11.63;;;;;;;7.59;85.10;99980.60;127646;1091;104247;-77
2021/01/07 07:52:20;;;;;;;21.03;10.90;;;;;;;7.61;84.55;99978.97;127763;1092;104208;-75
2021/01/07 07:55:00;;;;;;;22.13;10.90;;;;;;;7.63;84.79;99982.52;127773;1091;104907;-76
2021/01/07 07:57:32;;;;;;;21.97;10.30;;;;;;;7.64;84.38;99989.53;127779;1091;104247;-77
2021/01/07 08:00:13;;;;;;;21.77;10.60;;;;;;;7.64;84.44;99994.75;127728;1091;104279;-76
2021/01/07 08:02:44;;;;;;;20.40;9.70;;;;;;;7.65;85.05;99996.52;127741;1092;104337;-77
2021/01/07 08:05:27;;;;;;;21.83;11.00;;;;;;;7.63;84.53;99992.97;127832;1091;104672;-76
2021/01/07 08:07:58;;;;;;;21.23;10.40;;;;;;;7.65;84.65;99983.45;127778;1091;104202;-77
2021/01/07 08:10:28;;;;;;;23.27;11.87;;;;;;;7.70;85.21;99974.11;127702;1092;104448;-78
2021/01/07 08:13:00;;;;;;;18.80;8.90;;;;;;;7.76;84.77;99973.43;127764;1091;104286;-77
2021/01/07 08:15:31;;;;;;;21.37;10.77;;;;;;;7.78;85.26;99971.79;127764;1092;104330;-77
2021/01/07 08:18:19;;;;;;;22.73;10.27;;;;;;;7.83;85.26;99981.56;127839;1092;104378;-77
2021/01/07 08:20:51;;;;;;;18.93;8.57;;;;;;;7.82;84.94;99978.89;127804;1091;104214;-77
2021/01/07 08:23:26;;;;;;;20.70;8.80;;;;;;;7.81;85.12;99967.56;127827;1091;104280;-76
2021/01/07 08:26:05;;;;;;;20.23;8.83;;;;;;;7.85;84.73;99953.80;127808;1091;104250;-75
2021/01/07 08:28:51;;;;;;;21.07;8.77;;;;;;;7.87;85.28;99949.52;127770;1091;104170;-75
2021/01/07 08:31:41;;;;;;;27.25;9.00;;;;;;;7.90;84.59;99940.91;127771;1092;104346;-75
2021/01/07 08:34:23;;;;;;;17.93;7.57;;;;;;;7.93;84.49;99943.61;127773;1091;104308;-77
2021/01/07 08:37:21;;;;;;;19.50;8.33;;;;;;;7.92;84.69;99927.05;127215;1095;104228;-76
2021/01/07 08:40:10;;;;;;;17.93;7.57;;;;;;;8.00;84.96;99923.84;127298;1093;104371;-76
2021/01/07 08:42:45;;;;;;;17.73;7.10;;;;;;;8.01;85.31;99912.54;127274;1092;104286;-75
2021/01/07 08:45:29;;;;;;;17.85;8.00;;;;;;;8.09;85.43;99905.89;127299;1094;104221;-76
2021/01/07 08:48:09;;;;;;;;;;;;;;;8.18;85.55;99890.55;127290;1095;104238;-76
2021/01/07 08:50:50;;;;;;;17.10;7.00;;;;;;;8.17;84.62;99878.30;127259;1094;104505;-75
2021/01/07 08:53:33;;;;;;;17.10;7.05;;;;;;;8.19;84.64;99871.39;127244;1094;104665;-75
2021/01/07 08:56:40;;;;;;;15.70;6.20;;;;;;;8.21;84.87;99877.58;127241;1094;104352;-76
2021/01/07 08:59:37;;;;;;;15.87;6.57;;;;;;;8.24;85.38;99872.47;127271;1095;104374;-76
2021/01/07 09:05:23;;;;;;;15.07;6.60;;;;;;;8.38;85.27;99870.33;127360;1093;104293;-77
2021/01/07 09:08:08;;;;;;;14.03;6.43;;;;;;;8.48;85.08;99866.33;127803;1091;104205;-77
2021/01/07 09:10:39;;;;;;;13.53;6.40;;;;;;;8.55;84.74;99859.56;127742;1091;104229;-76
2021/01/07 09:13:26;;;;;;;14.53;6.17;;;;;;;8.64;84.85;99863.37;127648;1092;104288;-76
2021/01/07 09:16:20;;;;;;;12.83;5.70;;;;;;;8.74;84.75;99868.91;127776;1091;104221;-77
2021/01/07 09:19:06;;;;;;;12.40;5.70;;;;;;;8.77;85.25;99862.07;127829;1091;104212;-76
2021/01/07 09:21:39;;;;;;;14.23;6.03;;;;;;;8.72;84.95;99861.01;127792;1092;104218;-76
2021/01/07 09:24:11;;;;;;;12.63;5.70;;;;;;;8.63;84.76;99853.77;127768;1091;104225;-76
2021/01/07 09:26:45;;;;;;;11.60;5.40;;;;;;;8.60;84.19;99848.44;127785;1091;104205;-76
2021/01/07 09:29:15;;;;;;;11.80;6.40;;;;;;;8.56;84.66;99848.28;127788;1091;104243;-75
2021/01/07 09:31:44;;;;;;;13.87;6.13;;;;;;;8.53;85.05;99843.83;127845;1091;104212;-76
2021/01/07 09:34:15;;;;;;;15.13;7.03;;;;;;;8.54;85.10;99840.39;127753;1092;104347;-76
2021/01/07 09:36:46;;;;;;;14.90;6.70;;;;;;;8.51;84.29;99828.91;127699;1092;104214;-77
2021/01/07 09:39:17;;;;;;;14.93;6.87;;;;;;;8.48;85.05;99834.04;127703;1091;104333;-76
2021/01/07 09:41:47;;;;;;;11.77;5.93;;;;;;;8.47;84.61;99817.47;127627;1092;104293;-77
2021/01/07 09:44:17;;;;;;;13.90;6.60;;;;;;;8.49;84.49;99813.17;127811;1091;104263;-76
2021/01/07 09:46:50;;;;;;;15.47;6.60;;;;;;;8.52;84.94;99797.59;127812;1091;104352;-76
2021/01/07 09:49:21;;;;;;;15.98;6.97;;;;;;;8.53;85.07;99796.77;127758;1091;104208;-77
2021/01/07 09:51:52;;;;;;;15.00;6.23;;;;;;;8.52;85.14;99791.48;127780;1091;104221;-77
2021/01/07 09:54:23;;;;;;;13.27;6.30;;;;;;;8.50;84.83;99785.33;127813;1092;104196;-79
2021/01/07 09:56:55;;;;;;;17.07;7.30;;;;;;;8.48;84.72;99785.27;127791;1091;104212;-78
2021/01/07 09:59:27;;;;;;;15.53;7.33;;;;;;;8.48;85.23;99773.91;127804;1091;104289;-76
2021/01/07 10:02:02;;;;;;;17.60;8.20;;;;;;;8.50;84.85;99764.41;127746;1091;104340;-77
2021/01/07 10:04:41;;;;;;;20.00;8.97;;;;;;;8.51;84.62;99760.93;127833;1092;104690;-77
2021/01/07 10:07:14;;;;;;;17.63;7.87;;;;;;;8.55;84.89;99754.97;127796;1092;104231;-76
2021/01/07 10:09:45;;;;;;;18.20;7.87;;;;;;;8.56;85.22;99751.53;127765;1091;104286;-78
2021/01/07 10:12:16;;;;;;;18.67;8.60;;;;;;;8.52;85.32;99755.75;127803;1091;104262;-79
2021/01/07 10:14:48;;;;;;;18.37;8.33;;;;;;;8.53;84.65;99759.27;127810;1092;104844;-76
2021/01/07 10:17:20;;;;;;;18.13;8.97;;;;;;;8.52;84.93;99750.52;127853;1091;104211;-78
2021/01/07 10:19:51;;;;;;;21.20;9.60;;;;;;;8.53;85.27;99749.69;127820;1091;104212;-80
2021/01/07 10:22:24;;;;;;;19.20;9.40;;;;;;;8.56;84.69;99744.56;127825;1091;104259;-78
2021/01/07 10:24:55;;;;;;;18.40;8.73;;;;;;;8.64;85.60;99745.67;127817;1091;104231;-78
2021/01/07 10:27:29;;;;;;;20.63;9.67;;;;;;;8.76;85.55;99728.61;127735;1091;104302;-78
2021/01/07 10:30:00;;;;;;;16.90;8.97;;;;;;;8.92;84.89;99727.34;127799;1091;104336;-78
2021/01/07 10:32:32;;;;;;;17.37;8.87;;;;;;;9.00;85.08;99723.21;127814;1091;104336;-78
2021/01/07 10:35:03;;;;;;;20.20;9.43;;;;;;;9.11;84.67;99723.53;127806;1092;104264;-78
2021/01/07 10:37:35;;;;;;;17.63;9.13;;;;;;;9.21;84.86;99722.96;127815;1091;104308;-79
2021/01/07 10:40:14;;;;;;;16.37;7.67;;;;;;;9.28;84.66;99719.66;127746;1091;104334;-77
2021/01/07 10:42:50;;;;;;;16.47;7.63;;;;;;;9.25;84.52;99722.19;127795;1091;104228;-76
2021/01/07 10:45:22;;;;;;;18.20;9.23;;;;;;;9.20;84.49;99715.95;127773;1092;104292;-77
2021/01/07 10:47:59;;;;;;;17.67;8.60;;;;;;;9.16;84.96;99716.69;127819;1092;104251;-76
2021/01/07 10:50:33;;;;;;;18.00;8.60;;;;;;;9.14;84.79;99711.41;127778;1091;104341;-76
2021/01/07 10:53:18;;;;;;;18.70;9.20;;;;;;;9.13;84.57;99708.75;127788;1091;104217;-77
2021/01/07 10:55:53;;;;;;;;;;;;;;;9.09;85.09;99702.55;127876;1092;104237;-76
2021/01/07 10:58:39;;;;;;;19.07;9.27;;;;;;;9.04;85.03;99698.02;127815;1091;104729;-76
2021/01/07 11:01:28;;;;;;;17.70;9.00;;;;;;;9.01;85.10;99696.22;127742;1092;104310;-76
2021/01/07 11:04:25;;;;;;;17.43;8.10;;;;;;;9.03;84.98;99696.26;127757;1092;104216;-78
2021/01/07 11:07:09;;;;;;;16.67;7.80;;;;;;;9.07;85.16;99696.39;127744;1091;104389;-78
2021/01/07 11:09:46;;;;;;;18.53;9.07;;;;;;;9.17;84.76;99695.79;127784;1091;104347;-78
2021/01/07 11:12:27;;;;;;;18.17;8.50;;;;;;;9.30;84.54;99690.91;127778;1092;104237;-77
2021/01/07 11:15:03;;;;;;;18.63;8.30;;;;;;;9.42;84.70;99690.37;127825;1093;104211;-76
2021/01/07 11:17:39;;;;;;;19.37;8.50;;;;;;;9.45;84.87;99700.92;127784;1091;104782;-76
2021/01/07 11:20:11;;;;;;;17.23;8.60;;;;;;;9.50;85.02;99694.07;127731;1092;104205;-77
2021/01/07 11:22:44;;;;;;;15.93;8.17;;;;;;;9.56;84.32;99698.60;127813;1091;104039;-78
2021/01/07 11:25:17;;;;;;;17.67;7.93;;;;;;;9.58;84.28;99692.53;127799;1092;104235;-78
2021/01/07 11:27:57;;;;;;;16.03;7.03;;;;;;;9.62;84.47;99683.92;127861;1091;104339;-79
2021/01/07 11:30:31;;;;;;;17.70;7.87;;;;;;;9.67;84.68;99690.16;127792;1091;104206;-79
2021/01/07 11:33:05;;;;;;;16.00;7.93;;;;;;;9.78;84.64;99694.80;127784;1091;104458;-79
2021/01/07 11:35:36;;;;;;;;;;;;;;;9.90;84.37;99697.75;127820;1092;104234;-78
2021/01/07 11:38:22;;;;;;;15.40;7.57;;;;;;;10.08;84.91;99695.59;127796;1092;104251;-78
2021/01/07 11:41:00;;;;;;;14.23;7.47;;;;;;;10.31;84.39;99682.13;127752;1091;104413;-78